Map

Track Data

SID SEASON NUMBER BASIN SUBBASIN NAME ISO_TIME NATURE LAT LON WMO_WIND WMO_PRES WMO_AGENCY TRACK_TYPE DIST2LAND LANDFALL IFLAG USA_AGENCY USA_ATCF_ID USA_LAT USA_LON USA_RECORD USA_STATUS USA_WIND USA_PRES USA_SSHS USA_R34_NE USA_R34_SE USA_R34_SW USA_R34_NW USA_R50_NE USA_R50_SE USA_R50_SW USA_R50_NW USA_R64_NE USA_R64_SE USA_R64_SW USA_R64_NW USA_POCI USA_ROCI USA_RMW USA_EYE TOKYO_LAT TOKYO_LON TOKYO_GRADE TOKYO_WIND TOKYO_PRES TOKYO_R50_DIR TOKYO_R50_LONG TOKYO_R50_SHORT TOKYO_R30_DIR TOKYO_R30_LONG TOKYO_R30_SHORT TOKYO_LAND CMA_LAT CMA_LON CMA_CAT CMA_WIND CMA_PRES HKO_LAT HKO_LON HKO_CAT HKO_WIND HKO_PRES NEWDELHI_LAT NEWDELHI_LON NEWDELHI_GRADE NEWDELHI_WIND NEWDELHI_PRES NEWDELHI_CI NEWDELHI_DP NEWDELHI_POCI REUNION_LAT REUNION_LON REUNION_TYPE REUNION_WIND REUNION_PRES REUNION_TNUM REUNION_CI REUNION_RMW REUNION_R34_NE REUNION_R34_SE REUNION_R34_SW REUNION_R34_NW REUNION_R50_NE REUNION_R50_SE REUNION_R50_SW REUNION_R50_NW REUNION_R64_NE REUNION_R64_SE REUNION_R64_SW REUNION_R64_NW BOM_LAT BOM_LON BOM_TYPE BOM_WIND BOM_PRES BOM_TNUM BOM_CI BOM_RMW BOM_R34_NE BOM_R34_SE BOM_R34_SW BOM_R34_NW BOM_R50_NE BOM_R50_SE BOM_R50_SW BOM_R50_NW BOM_R64_NE BOM_R64_SE BOM_R64_SW BOM_R64_NW BOM_ROCI BOM_POCI BOM_EYE BOM_POS_METHOD BOM_PRES_METHOD NADI_LAT NADI_LON NADI_CAT NADI_WIND NADI_PRES WELLINGTON_LAT WELLINGTON_LON WELLINGTON_WIND WELLINGTON_PRES DS824_LAT DS824_LON DS824_STAGE DS824_WIND DS824_PRES TD9636_LAT TD9636_LON TD9636_STAGE TD9636_WIND TD9636_PRES TD9635_LAT TD9635_LON TD9635_WIND TD9635_PRES TD9635_ROCI NEUMANN_LAT NEUMANN_LON NEUMANN_CLASS NEUMANN_WIND NEUMANN_PRES MLC_LAT MLC_LON MLC_CLASS MLC_WIND MLC_PRES USA_GUST BOM_GUST BOM_GUST_PER REUNION_GUST REUNION_GUST_PER USA_SEAHGT USA_SEARAD_NE USA_SEARAD_SE USA_SEARAD_SW USA_SEARAD_NW STORM_SPEED STORM_DIR
1864011S07080 1864 2 SI MM NOT_NAMED 1864-01-11 06:00:00 NR -7.10000 79.6000 main 1460 1460 __________O___ -1 -7.10000 79.6000 7 3 252
1864011S07080 1864 2 SI MM NOT_NAMED 1864-01-11 09:00:00 NR -7.15161 79.4469 main 1474 1474 __________P___ -1 -7.15161 79.4469 7 3 251
1864011S07080 1864 2 SI MM NOT_NAMED 1864-01-11 12:00:00 NR -7.20256 79.2950 main 1475 1475 __________P___ -1 -7.20256 79.2950 7 3 251
1864011S07080 1864 2 SI MM NOT_NAMED 1864-01-11 15:00:00 NR -7.25222 79.1457 main 1488 1488 __________P___ -1 -7.25222 79.1457 7 3 252
1864011S07080 1864 2 SI MM NOT_NAMED 1864-01-11 18:00:00 NR -7.30000 79.0000 main 1489 1489 __________O___ -1 -7.30000 79.0000 7 3 252
1864011S07080 1864 2 SI MM NOT_NAMED 1864-01-11 21:00:00 NR -7.34590 78.8581 main 1491 1491 __________P___ -1 -7.34590 78.8581 7 3 252
1864011S07080 1864 2 SI MM NOT_NAMED 1864-01-12 00:00:00 NR -7.39245 78.7150 main 1505 1505 __________P___ -1 -7.39245 78.7150 7 3 252
1864011S07080 1864 2 SI MM NOT_NAMED 1864-01-12 03:00:00 NR -7.44277 78.5643 main 1506 1506 __________P___ -1 -7.44277 78.5643 7 3 251
1864011S07080 1864 2 SI MM NOT_NAMED 1864-01-12 06:00:00 NR -7.50000 78.4000 main 1521 1521 __________O___ -1 -7.50000 78.4000 7 4 251
1864011S07080 1864 2 SI MM NOT_NAMED 1864-01-12 09:00:00 NR -7.56784 78.2063 main 1536 1536 __________P___ -1 -7.56784 78.2063 7 4 250
1864011S07080 1864 2 SI MM NOT_NAMED 1864-01-12 12:00:00 NR -7.64254 78.0000 main 1540 1540 __________P___ -1 -7.64254 78.0000 7 4 249
1864011S07080 1864 2 SI MM NOT_NAMED 1864-01-12 15:00:00 NR -7.72096 77.7938 main 1555 1555 __________P___ -1 -7.72096 77.7938 7 4 248
1864011S07080 1864 2 SI MM NOT_NAMED 1864-01-12 18:00:00 NR -7.80000 77.6000 main 1570 1570 __________O___ -1 -7.80000 77.6000 7 3 246
1864011S07080 1864 2 SI MM NOT_NAMED 1864-01-12 21:00:00 NR -7.85030 77.5003 main 1584 1584 __________P___ -1 -7.85030 77.5003 7 2 242
1864011S07080 1864 2 SI MM NOT_NAMED 1864-01-13 00:00:00 NR -7.90445 77.4045 main 1586 1586 __________P___ -1 -7.90445 77.4045 7 3 241
1864011S07080 1864 2 SI MM NOT_NAMED 1864-01-13 03:00:00 NR -7.98140 77.2564 main 1600 1600 __________P___ -1 -7.98140 77.2564 7 4 244
1864011S07080 1864 2 SI MM NOT_NAMED 1864-01-13 06:00:00 NR -8.10000 77.0000 main 1618 1618 __________O___ -1 -8.10000 77.0000 7 7 246
1864011S07080 1864 2 SI MM NOT_NAMED 1864-01-13 09:00:00 NR -8.27806 76.5732 main 1651 1651 __________P___ -1 -8.27806 76.5732 7 10 247
1864011S07080 1864 2 SI MM NOT_NAMED 1864-01-13 12:00:00 NR -8.49782 76.0350 main 1692 1692 __________P___ -1 -8.49782 76.0350 7 12 248
1864011S07080 1864 2 SI MM NOT_NAMED 1864-01-13 15:00:00 NR -8.74362 75.4293 main 1734 1734 __________P___ -1 -8.74362 75.4293 7 13 248
1864011S07080 1864 2 SI MM NOT_NAMED 1864-01-13 18:00:00 NR -9.00000 74.8000 main 1788 1788 __________O___ -1 -9.00000 74.8000 7 13 248
1864011S07080 1864 2 SI MM NOT_NAMED 1864-01-13 21:00:00 NR -9.23460 74.2061 main 1832 1832 __________P___ -1 -9.23460 74.2061 7 13 248
1864011S07080 1864 2 SI MM NOT_NAMED 1864-01-14 00:00:00 NR -9.47740 73.5997 main 1889 1889 __________P___ -1 -9.47740 73.5997 7 13 247
1864011S07080 1864 2 SI MM NOT_NAMED 1864-01-14 03:00:00 NR -9.73147 72.9935 main 1936 1936 __________P___ -1 -9.73147 72.9935 7 13 246
1864011S07080 1864 2 SI MM NOT_NAMED 1864-01-14 06:00:00 NR -10.0000 72.4000 main 1939 1875 __________O___ -1 -10.0000 72.4000 7 13 244
1864011S07080 1864 2 SI MM NOT_NAMED 1864-01-14 09:00:00 NR -10.2975 71.8275 main 1867 1803 __________P___ -1 -10.2975 71.8275 7 13 241
1864011S07080 1864 2 SI MM NOT_NAMED 1864-01-14 12:00:00 NR -10.6071 71.2700 main 1803 1739 __________P___ -1 -10.6071 71.2700 7 12 240
1864011S07080 1864 2 SI MM NOT_NAMED 1864-01-14 15:00:00 NR -10.9132 70.7275 main 1731 1667 __________P___ -1 -10.9132 70.7275 7 12 241
1864011S07080 1864 2 SI MM NOT_NAMED 1864-01-14 18:00:00 NR -11.2000 70.2000 main 1667 1610 __________O___ -1 -11.2000 70.2000 7 12 243
1864011S07080 1864 2 SI MM NOT_NAMED 1864-01-14 21:00:00 NR -11.4588 69.6450 main 1595 1538 __________P___ -1 -11.4588 69.6450 7 12 245
1864011S07080 1864 2 SI MM NOT_NAMED 1864-01-15 00:00:00 NR -11.6951 69.1100 main 1538 1482 __________P___ -1 -11.6951 69.1100 7 11 246
1864011S07080 1864 2 SI MM NOT_NAMED 1864-01-15 03:00:00 NR -11.9089 68.6200 main 1482 1434 __________P___ -1 -11.9089 68.6200 7 10 246
1864011S07080 1864 2 SI MM NOT_NAMED 1864-01-15 06:00:00 NR -12.1000 68.2000 main 1434 1395 __________O___ -1 -12.1000 68.2000 7 8 244
1864011S07080 1864 2 SI MM NOT_NAMED 1864-01-15 09:00:00 NR -12.2670 67.8736 main 1395 1363 __________P___ -1 -12.2670 67.8736 7 7 241
1864011S07080 1864 2 SI MM NOT_NAMED 1864-01-15 12:00:00 NR -12.4144 67.6170 main 1363 1339 __________P___ -1 -12.4144 67.6170 7 5 238
1864011S07080 1864 2 SI MM NOT_NAMED 1864-01-15 15:00:00 NR -12.5546 67.4018 main 1331 1308 __________P___ -1 -12.5546 67.4018 7 5 235
1864011S07080 1864 2 SI MM NOT_NAMED 1864-01-15 18:00:00 NR -12.7000 67.2000 main 1308 1284 __________O___ -1 -12.7000 67.2000 7 5 239
1864011S07080 1864 2 SI MM NOT_NAMED 1864-01-15 21:00:00 NR -12.7903 67.0072 main 1284 1260 __________P___ -1 -12.7903 67.0072 7 4 242
1864011S07080 1864 2 SI MM NOT_NAMED 1864-01-16 00:00:00 NR -12.8994 66.8154 main 1260 1229 __________P___ -1 -12.8994 66.8154 7 5 234
1864011S07080 1864 2 SI MM NOT_NAMED 1864-01-16 03:00:00 NR -13.0839 66.5910 main 1229 1183 __________P___ -1 -13.0839 66.5910 7 7 225
1864011S07080 1864 2 SI MM NOT_NAMED 1864-01-16 06:00:00 NR -13.4000 66.3000 main 1183 1113 __________O___ -1 -13.4000 66.3000 7 11 220
1864011S07080 1864 2 SI MM NOT_NAMED 1864-01-16 09:00:00 NR -13.9264 65.8582 main 1113 1029 __________P___ -1 -13.9264 65.8582 7 15 218
1864011S07080 1864 2 SI MM NOT_NAMED 1864-01-16 12:00:00 NR -14.5813 65.3527 main 1022 932 __________P___ -1 -14.5813 65.3527 7 17 216
1864011S07080 1864 2 SI MM NOT_NAMED 1864-01-16 15:00:00 NR -15.2953 64.8456 main 924 843 __________P___ -1 -15.2953 64.8456 7 17 213
1864011S07080 1864 2 SI MM NOT_NAMED 1864-01-16 18:00:00 NR -16.0000 64.4000 main 843 780 __________O___ -1 -16.0000 64.4000 7 15 209
1864011S07080 1864 2 SI MM NOT_NAMED 1864-01-16 21:00:00 NR -16.6365 64.0860 main 780 729 __________P___ -1 -16.6365 64.0860 7 14 203
1864011S07080 1864 2 SI MM NOT_NAMED 1864-01-17 00:00:00 NR -17.2467 63.8440 main 719 680 __________P___ -1 -17.2467 63.8440 7 13 199
1864011S07080 1864 2 SI MM NOT_NAMED 1864-01-17 03:00:00 NR -17.8086 63.6551 main 680 638 __________P___ -1 -17.8086 63.6551 7 11 197
1864011S07080 1864 2 SI MM NOT_NAMED 1864-01-17 06:00:00 NR -18.3000 63.5000 main 638 603 __________O___ -1 -18.3000 63.5000 7 9 199
1864011S07080 1864 2 SI MM NOT_NAMED 1864-01-17 09:00:00 NR -18.6845 63.3374 main 603 583 __________P___ -1 -18.6845 63.3374 7 8 202
1864011S07080 1864 2 SI MM NOT_NAMED 1864-01-17 12:00:00 NR -19.0023 63.2041 main 583 565 __________P___ -1 -19.0023 63.2041 7 7 201
1864011S07080 1864 2 SI MM NOT_NAMED 1864-01-17 15:00:00 NR -19.2939 63.0938 main 565 549 __________P___ -1 -19.2939 63.0938 7 6 198
1864011S07080 1864 2 SI MM NOT_NAMED 1864-01-17 18:00:00 NR -19.6000 63.0000 main 549 534 __________O___ -1 -19.6000 63.0000 7 7 194
1864011S07080 1864 2 SI MM NOT_NAMED 1864-01-17 21:00:00 NR -19.9520 62.9167 main 533 521 __________P___ -1 -19.9520 62.9167 7 8 191
1864011S07080 1864 2 SI MM NOT_NAMED 1864-01-18 00:00:00 NR -20.3451 62.8406 main 521 521 __________P___ -1 -20.3451 62.8406 7 8 190
1864011S07080 1864 2 SI MM NOT_NAMED 1864-01-18 03:00:00 NR -20.7657 62.7692 main 523 514 __________P___ -1 -20.7657 62.7692 7 9 189
1864011S07080 1864 2 SI MM NOT_NAMED 1864-01-18 06:00:00 NR -21.2000 62.7000 main 519 __________O___ -1 -21.2000 62.7000 7 9 188

About IBTrACS Database

This database is a web-friendly format of International Best Track Archive for Climate Stewardship (IBTrACS), a global best track data archive curated by NOAA dating back to 1842.

Updated: 2021-10-25